ADDS METAR Data INFO
IDs: Format: Raw Decoded Include TAF

Data at: 0435 UTC 21 Jan 2018

METAR for:KFWA (Fort Wayne Intl, IN, US)
Text:KFWA 210425Z 19006KT 3SM BR BKN009 OVC020 03/03 A3006 RMK AO2 DZE18 P0000 T00330028
Temperature: 3.3°C ( 38°F)
Dewpoint: 2.8°C ( 37°F) [RH = 97%]
Pressure (altimeter):30.06 inches Hg (1018.0 mb)
Winds:from the S (190 degrees) at 7 MPH (6 knots; 3.1 m/s)
Visibility: 3 sm ( 5 km)
Ceiling:900 feet AGL
Clouds: broken clouds at 900 feet AGL, overcast cloud deck at 2000 feet AGL
Weather:BR (mist)